createdAt,value
2022-10-28T00:01:24.444Z,51.83
2022-10-28T00:04:02.335Z,43.00
2022-10-28T00:06:36.195Z,43.25
2022-10-28T00:09:08.211Z,53.55
2022-10-28T00:11:39.444Z,48.00
2022-10-28T00:14:09.285Z,32.35
2022-10-28T00:16:38.535Z,25.35
2022-10-28T00:19:09.297Z,31.17
2022-10-28T00:21:39.789Z,24.42
2022-10-28T00:24:09.495Z,25.65
2022-10-28T00:26:39.777Z,22.13
2022-10-28T00:29:12.024Z,12.57
2022-10-28T00:31:40.630Z,11.25
2022-10-28T00:34:14.066Z,10.55
2022-10-28T00:36:44.377Z,20.00
2022-10-28T00:39:16.344Z,19.55
2022-10-28T00:41:50.913Z,21.27
2022-10-28T00:44:38.127Z,18.15
2022-10-28T00:49:52.726Z,26.70
2022-10-28T00:52:25.234Z,24.20
2022-10-28T00:54:54.604Z,22.63
2022-10-28T00:57:29.874Z,23.42
2022-10-28T01:00:00.293Z,27.45
2022-10-28T01:02:28.937Z,22.20
2022-10-28T01:04:57.819Z,24.63
2022-10-28T01:07:26.724Z,28.70
2022-10-28T01:09:54.904Z,30.75
2022-10-28T01:12:50.518Z,35.03
2022-10-28T01:15:34.650Z,26.17
2022-10-28T01:18:29.900Z,18.10
2022-10-28T01:21:16.477Z,22.98
2022-10-28T01:24:24.835Z,21.73
2022-10-28T01:27:19.483Z,17.30
2022-10-28T01:29:50.839Z,17.52
2022-10-28T01:32:57.840Z,18.70
2022-10-28T01:35:55.202Z,19.67
2022-10-28T01:38:35.757Z,21.25
2022-10-28T01:41:12.674Z,19.90
2022-10-28T01:43:57.325Z,23.88
2022-10-28T01:46:34.479Z,24.50
2022-10-28T01:49:11.320Z,28.75
2022-10-28T01:54:13.970Z,27.58
2022-10-28T01:56:44.026Z,22.98
2022-10-28T01:59:17.096Z,22.65
2022-10-28T02:01:45.432Z,22.63
2022-10-28T02:04:14.599Z,25.00
2022-10-28T02:06:47.275Z,26.00
2022-10-28T02:09:37.655Z,27.02
2022-10-28T02:12:24.245Z,22.77
2022-10-28T02:15:11.071Z,23.45
2022-10-28T02:17:58.665Z,22.83
2022-10-28T02:20:45.044Z,41.28
2022-10-28T02:23:23.076Z,54.70
2022-10-28T02:26:05.806Z,48.63
2022-10-28T02:28:43.385Z,33.55
2022-10-28T02:31:34.924Z,21.40
2022-10-28T02:34:31.609Z,13.77
2022-10-28T02:37:04.524Z,12.95
2022-10-28T02:39:38.504Z,12.52
2022-10-28T02:42:47.781Z,15.48
2022-10-28T02:45:25.894Z,23.95
2022-10-28T02:48:02.329Z,22.88
2022-10-28T02:50:39.214Z,31.30
2022-10-28T02:53:22.131Z,30.48
2022-10-28T02:55:58.076Z,23.85
2022-10-28T02:58:26.222Z,20.45
2022-10-28T03:00:54.541Z,19.13
2022-10-28T03:03:23.205Z,21.80
2022-10-28T03:05:51.775Z,22.52
2022-10-28T03:08:19.954Z,23.70
2022-10-28T03:10:48.294Z,27.52
2022-10-28T03:13:16.646Z,28.00
2022-10-28T03:15:45.244Z,20.13
2022-10-28T03:18:13.949Z,17.77
2022-10-28T03:20:42.485Z,24.23
2022-10-28T03:23:10.805Z,22.52
2022-10-28T03:25:39.599Z,23.30
2022-10-28T03:28:07.762Z,19.88
2022-10-28T03:30:36.214Z,22.10
2022-10-28T03:33:04.499Z,18.50
2022-10-28T03:35:32.949Z,17.50
2022-10-28T03:38:01.592Z,18.88
2022-10-28T03:40:29.751Z,19.10
2022-10-28T03:42:58.345Z,22.63
2022-10-28T03:45:26.706Z,18.88
2022-10-28T03:47:55.487Z,22.65
2022-10-28T03:50:24.690Z,18.52
2022-10-28T03:52:52.979Z,19.33
2022-10-28T03:55:21.614Z,18.20
2022-10-28T03:57:50.187Z,18.80
2022-10-28T04:00:18.920Z,18.15
2022-10-28T04:02:52.318Z,16.23
2022-10-28T04:05:22.374Z,16.58
2022-10-28T04:07:50.479Z,17.77
2022-10-28T04:10:18.793Z,19.10
2022-10-28T04:12:47.335Z,20.60
2022-10-28T04:15:15.514Z,20.05
2022-10-28T04:17:43.647Z,19.95
2022-10-28T04:20:12.165Z,20.13
2022-10-28T04:22:40.264Z,19.15
2022-10-28T04:25:08.861Z,18.00
2022-10-28T04:27:37.135Z,18.48
2022-10-28T04:30:05.892Z,18.73
2022-10-28T04:32:34.140Z,19.42
2022-10-28T04:35:02.628Z,19.58
2022-10-28T04:37:30.916Z,19.90
2022-10-28T04:39:59.145Z,19.42
2022-10-28T18:25:07.042Z,33.97
2022-10-28T18:27:36.648Z,37.55
2022-10-28T18:30:05.602Z,43.33
2022-10-28T18:32:34.021Z,35.60
2022-10-28T18:35:02.277Z,34.08
2022-10-28T18:37:30.468Z,38.75
2022-10-28T18:39:59.100Z,35.22
2022-10-28T18:42:27.693Z,33.78
2022-10-28T18:44:59.415Z,35.50
2022-10-28T18:47:28.057Z,31.17
2022-10-28T18:49:56.968Z,34.17
2022-10-28T18:52:25.419Z,36.17
2022-10-28T18:54:53.576Z,33.38
2022-10-28T18:57:22.890Z,34.75
2022-10-28T19:00:17.494Z,34.85
2022-10-28T19:02:44.810Z,35.63
2022-10-28T19:05:15.928Z,32.00
2022-10-28T19:07:44.588Z,32.65
2022-10-28T19:10:12.956Z,34.50
2022-10-28T19:12:45.000Z,36.85
2022-10-28T19:15:17.401Z,38.40
2022-10-28T19:17:45.636Z,38.20
2022-10-28T19:20:13.701Z,38.10
2022-10-28T19:22:42.033Z,36.47
2022-10-28T19:25:10.463Z,37.58
2022-10-28T19:27:38.766Z,36.63
2022-10-28T19:30:10.784Z,36.70
2022-10-28T19:32:41.721Z,35.70
2022-10-28T19:35:10.005Z,35.20
2022-10-28T19:37:38.541Z,38.10
2022-10-28T19:40:10.536Z,40.20
2022-10-28T19:42:40.419Z,34.50
2022-10-28T19:45:09.551Z,54.22
2022-10-28T19:47:38.023Z,33.88
2022-10-28T19:50:06.709Z,41.53
2022-10-28T19:52:35.040Z,38.67
2022-10-28T19:55:04.057Z,37.20
2022-10-28T19:57:32.297Z,38.42
2022-10-28T20:00:00.520Z,39.67
2022-10-28T20:02:28.777Z,38.67
2022-10-28T20:04:58.126Z,34.67
2022-10-28T20:07:26.646Z,40.22
2022-10-28T20:09:55.103Z,39.13
2022-10-28T20:12:23.460Z,37.00
2022-10-28T20:14:51.728Z,38.60
2022-10-28T20:17:21.802Z,38.75
2022-10-28T20:19:50.626Z,39.40
2022-10-28T20:22:19.341Z,42.20
2022-10-28T20:24:47.532Z,36.47
2022-10-28T20:27:15.891Z,38.85
2022-10-28T20:29:44.607Z,36.28
2022-10-28T20:32:12.991Z,42.65
2022-10-28T20:34:41.158Z,39.05
2022-10-28T20:37:09.779Z,38.85
2022-10-28T20:39:43.859Z,43.53
2022-10-28T20:42:12.096Z,43.13
2022-10-28T20:44:40.347Z,41.92
2022-10-28T20:47:08.563Z,45.60
2022-10-28T20:49:37.195Z,44.33
2022-10-28T20:52:05.466Z,42.42
2022-10-28T20:54:33.590Z,42.20
2022-10-28T20:57:02.092Z,39.42
2022-10-28T20:59:30.212Z,40.75
2022-10-28T21:01:58.523Z,42.97
2022-10-28T21:04:26.981Z,38.70
2022-10-28T21:06:55.562Z,38.60
2022-10-28T21:09:23.866Z,46.45
2022-10-28T21:11:52.897Z,41.08
2022-10-28T21:14:22.176Z,38.05
2022-10-28T21:16:52.320Z,42.75
2022-10-28T21:19:20.426Z,43.95
2022-10-28T21:21:49.016Z,41.33
2022-10-28T21:24:17.355Z,36.47
2022-10-28T21:26:47.261Z,34.67
2022-10-28T21:29:18.361Z,31.98
2022-10-28T21:31:47.272Z,24.60
2022-10-28T21:34:15.945Z,23.98
2022-10-28T21:36:44.231Z,25.98
2022-10-28T21:39:12.681Z,27.38
2022-10-28T21:41:41.020Z,28.20
2022-10-28T21:44:10.881Z,29.02
2022-10-28T21:46:39.343Z,27.55
2022-10-28T21:49:08.719Z,22.58
2022-10-28T21:51:36.891Z,18.65
2022-10-28T21:54:06.146Z,16.35
2022-10-28T21:56:34.195Z,14.40
2022-10-28T21:59:02.551Z,15.63
2022-10-28T22:01:30.919Z,24.55
2022-10-28T22:03:59.347Z,35.30
2022-10-28T22:06:27.707Z,33.58
2022-10-28T22:08:56.301Z,27.02
2022-10-28T22:11:25.096Z,28.65
2022-10-28T22:13:59.097Z,24.88
2022-10-28T22:16:29.508Z,24.25
2022-10-28T22:19:04.057Z,24.08
2022-10-28T22:21:34.540Z,18.65
2022-10-28T22:24:03.135Z,16.67
2022-10-28T22:26:32.894Z,17.13
2022-10-28T22:29:01.216Z,12.93
2022-10-28T22:31:31.816Z,18.63
2022-10-28T22:34:01.273Z,19.73
2022-10-28T22:36:30.330Z,18.65
2022-10-28T22:39:01.130Z,28.00
2022-10-28T22:41:32.331Z,36.22
2022-10-28T22:44:03.057Z,36.97
2022-10-28T22:46:34.064Z,25.05
2022-10-28T22:49:02.499Z,18.77
2022-10-28T22:51:30.844Z,18.77
2022-10-28T22:53:59.116Z,20.40
2022-10-28T22:56:27.730Z,29.00
2022-10-28T22:58:57.862Z,29.50
2022-10-28T23:01:28.287Z,32.92
2022-10-28T23:03:56.765Z,25.40
2022-10-28T23:06:27.567Z,26.60
2022-10-28T23:08:56.679Z,26.23
2022-10-28T23:11:25.181Z,26.55
2022-10-28T23:13:55.106Z,27.70
2022-10-28T23:16:24.110Z,29.35
2022-10-28T23:18:55.871Z,29.63
2022-10-28T23:21:25.977Z,32.80
2022-10-28T23:24:03.110Z,21.00
2022-10-28T23:26:31.559Z,18.40
2022-10-28T23:29:00.951Z,20.80
2022-10-28T23:31:29.614Z,23.55
2022-10-28T23:34:00.143Z,13.48
2022-10-28T23:36:28.435Z,14.60
2022-10-28T23:38:58.221Z,17.38
2022-10-28T23:41:26.585Z,19.40
2022-10-28T23:43:55.159Z,25.77
2022-10-28T23:46:23.500Z,28.25
2022-10-28T23:48:52.109Z,31.83
2022-10-28T23:51:20.761Z,27.67
2022-10-28T23:53:48.980Z,20.45
2022-10-28T23:56:17.246Z,15.38
2022-10-28T23:58:45.419Z,17.98
